Time;durP1;ratioP1;P1;durP2;ratioP2;P2;SDS_P1;SDS_P2;PMS_P1;PMS_P2;Temp;Humidity;BMP_temperature;BMP_pressure;BME280_temperature;BME280_humidity;BME280_pressure;Samples;Min_cycle;Max_cycle;Signal;HPM_P1;HPM_P2
2022/11/27 00:00:55;;;;;;;;;;;1.60;99.90;;;;;;1837853;78;20103;-82
2022/11/27 00:03:21;;;;;;;;;;;1.60;99.90;;;;;;1837876;78;20170;-83
2022/11/27 00:05:52;;;;;;;;;;;1.60;99.90;;;;;;1838035;78;20107;-81
2022/11/27 00:08:19;;;;;;;;;;;1.60;99.90;;;;;;1837507;78;20158;-84
2022/11/27 00:10:46;;;;;;;;;;;1.50;99.90;;;;;;1840973;78;20119;-83
2022/11/27 00:13:12;;;;;;;;;;;1.50;99.90;;;;;;1838595;78;20150;-82
2022/11/27 00:15:39;;;;;;;;;;;1.50;99.90;;;;;;1837865;78;20369;-84
2022/11/27 00:18:06;;;;;;;;;;;1.50;99.90;;;;;;1837800;78;20119;-83
2022/11/27 00:20:32;;;;;;;;;;;1.40;99.90;;;;;;1837844;78;20329;-82
2022/11/27 00:22:59;;;;;;;;;;;1.50;99.90;;;;;;1837681;78;20123;-82
2022/11/27 00:25:26;;;;;;;;;;;1.30;99.90;;;;;;1837680;78;20356;-83
2022/11/27 00:27:53;;;;;;;;;;;1.40;99.90;;;;;;1837699;78;20200;-82
2022/11/27 00:30:19;;;;;;;;;;;1.30;99.90;;;;;;1837793;78;20354;-81
2022/11/27 00:32:46;;;;;;;;;;;1.20;99.90;;;;;;1837750;78;20131;-80
2022/11/27 00:35:13;;;;;;;;;;;1.20;99.90;;;;;;1837746;78;20152;-79
2022/11/27 00:37:40;;;;;;;;;;;1.30;99.90;;;;;;1838013;78;20134;-82
2022/11/27 00:40:07;;;;;;;;;;;1.30;99.90;;;;;;1837886;78;20150;-81
2022/11/27 00:42:33;;;;;;;;;;;1.30;99.90;;;;;;1837898;78;20342;-80
2022/11/27 00:45:00;;;;;;;;;;;1.20;99.90;;;;;;1837764;78;20118;-81
2022/11/27 00:47:27;;;;;;;;;;;1.20;99.90;;;;;;1837682;78;20326;-80
2022/11/27 00:49:53;;;;;;;;;;;1.30;99.90;;;;;;1837655;78;20123;-80
2022/11/27 00:52:20;;;;;;;;;;;1.20;99.90;;;;;;1837641;78;20318;-81
2022/11/27 00:54:47;;;;;;;;;;;1.20;99.90;;;;;;1837459;78;20120;-81
2022/11/27 00:57:13;;;;;;;;;;;1.20;99.90;;;;;;1837561;78;20119;-82
2022/11/27 00:59:40;;;;;;;;;;;1.30;99.90;;;;;;1837658;78;20119;-79
2022/11/27 01:02:07;;;;;;;;;;;1.10;99.90;;;;;;1837350;78;20132;-80
2022/11/27 01:04:34;;;;;;;;;;;1.10;99.90;;;;;;1837364;78;20162;-81
2022/11/27 01:07:02;;;;;;;;;;;1.00;99.90;;;;;;1838147;78;20127;-79
2022/11/27 01:09:29;;;;;;;;;;;1.00;99.90;;;;;;1837552;78;20111;-79
2022/11/27 01:11:55;;;;;;;;;;;1.00;99.90;;;;;;1837646;78;20330;-81
2022/11/27 01:14:22;;;;;;;;;;;1.00;99.90;;;;;;1837568;78;20174;-83
2022/11/27 01:16:49;;;;;;;;;;;1.00;99.90;;;;;;1837433;78;20174;-82
2022/11/27 01:19:15;;;;;;;;;;;1.00;99.90;;;;;;1837429;78;20216;-82
2022/11/27 01:21:42;;;;;;;;;;;0.90;99.90;;;;;;1837394;78;20163;-81
2022/11/27 01:24:09;;;;;;;;;;;1.00;99.90;;;;;;1837367;78;20131;-79
2022/11/27 01:26:36;;;;;;;;;;;1.00;99.90;;;;;;1837434;78;20319;-81
2022/11/27 01:29:03;;;;;;;;;;;1.00;99.90;;;;;;1837376;78;20115;-79
2022/11/27 01:31:30;;;;;;;;;;;1.00;99.90;;;;;;1837412;78;20362;-80
2022/11/27 01:34:00;;;;;;;;;;;1.00;99.90;;;;;;1837435;78;20126;-80
2022/11/27 01:36:27;;;;;;;;;;;0.90;99.90;;;;;;1837266;78;20107;-81
2022/11/27 01:38:54;;;;;;;;;;;1.00;99.90;;;;;;1837386;78;20146;-82
2022/11/27 01:41:21;;;;;;;;;;;1.10;99.90;;;;;;1837470;78;20107;-80
2022/11/27 01:43:49;;;;;;;;;;;1.10;99.90;;;;;;1837339;78;20123;-80
2022/11/27 01:46:26;;;;;;;;;;;1.20;99.90;;;;;;1837275;78;20127;-80
2022/11/27 01:48:54;;;;;;;;;;;1.10;99.90;;;;;;1837286;78;20123;-80
2022/11/27 01:51:20;;;;;;;;;;;0.90;99.90;;;;;;1837470;78;20118;-82
2022/11/27 01:53:47;;;;;;;;;;;1.00;99.90;;;;;;1837404;78;20119;-80
2022/11/27 01:56:14;;;;;;;;;;;1.00;99.90;;;;;;1837509;78;20134;-80
2022/11/27 01:58:40;;;;;;;;;;;0.90;99.90;;;;;;1837335;78;20122;-81
2022/11/27 02:01:07;;;;;;;;;;;0.80;99.90;;;;;;1837446;78;20192;-82
2022/11/27 02:03:34;;;;;;;;;;;0.80;99.90;;;;;;1837360;78;20232;-81
2022/11/27 02:06:01;;;;;;;;;;;0.80;99.90;;;;;;1837334;78;20146;-80
2022/11/27 02:08:27;;;;;;;;;;;0.70;99.90;;;;;;1837320;78;20119;-81
2022/11/27 02:11:08;;;;;;;;;;;0.70;99.90;;;;;;1837415;78;20123;-82
2022/11/27 02:13:48;;;;;;;;;;;0.80;99.90;;;;;;1837228;78;20157;-80
2022/11/27 02:16:19;;;;;;;;;;;0.80;99.90;;;;;;1837348;78;20119;-80
2022/11/27 02:18:50;;;;;;;;;;;0.80;99.90;;;;;;1837114;78;20139;-80
2022/11/27 02:21:27;;;;;;;;;;;0.70;99.90;;;;;;1837357;78;20119;-81
2022/11/27 02:24:08;;;;;;;;;;;0.70;99.90;;;;;;1836012;78;20342;-82
2022/11/27 02:26:45;;;;;;;;;;;0.70;99.90;;;;;;1836720;78;20127;-81
2022/11/27 02:29:12;;;;;;;;;;;0.70;99.90;;;;;;1837310;78;20313;-82
2022/11/27 02:31:52;;;;;;;;;;;0.80;99.90;;;;;;1837387;78;20150;-81
2022/11/27 02:34:23;;;;;;;;;;;0.80;99.90;;;;;;1837383;78;20131;-81
2022/11/27 02:36:52;;;;;;;;;;;0.70;99.90;;;;;;1837400;78;20119;-81
2022/11/27 02:39:20;;;;;;;;;;;0.70;99.90;;;;;;1836743;78;20122;-80
2022/11/27 02:41:48;;;;;;;;;;;0.80;99.90;;;;;;1837194;78;20134;-80
2022/11/27 02:44:15;;;;;;;;;;;0.80;99.90;;;;;;1837390;78;20193;-80
2022/11/27 02:46:42;;;;;;;;;;;0.80;99.90;;;;;;1837391;78;20119;-81
2022/11/27 02:49:11;;;;;;;;;;;0.70;99.90;;;;;;1837365;78;20165;-80
2022/11/27 02:51:39;;;;;;;;;;;0.70;99.90;;;;;;1837402;78;20119;-80
2022/11/27 02:54:06;;;;;;;;;;;0.80;99.90;;;;;;1837338;78;20107;-81
2022/11/27 02:56:33;;;;;;;;;;;0.80;99.90;;;;;;1837207;78;20169;-80
2022/11/27 02:59:01;;;;;;;;;;;0.70;99.90;;;;;;1837384;78;20141;-82
2022/11/27 03:01:29;;;;;;;;;;;0.70;99.90;;;;;;1837307;78;20115;-81
2022/11/27 03:03:56;;;;;;;;;;;0.70;99.90;;;;;;1835529;78;20310;-80
2022/11/27 03:06:39;;;;;;;;;;;0.50;99.90;;;;;;1837327;78;20209;-81
2022/11/27 03:09:07;;;;;;;;;;;0.60;99.90;;;;;;1836051;78;20357;-82
2022/11/27 03:11:34;;;;;;;;;;;0.60;99.90;;;;;;1837221;78;20343;-81
2022/11/27 03:14:01;;;;;;;;;;;0.60;99.90;;;;;;1837236;78;20112;-82
2022/11/27 03:16:33;;;;;;;;;;;0.50;99.90;;;;;;1837302;78;20155;-83
2022/11/27 03:19:01;;;;;;;;;;;0.60;99.90;;;;;;1837331;78;20115;-81
2022/11/27 03:21:34;;;;;;;;;;;0.50;99.90;;;;;;1835772;78;20150;-81
2022/11/27 03:24:01;;;;;;;;;;;0.50;99.90;;;;;;1837215;78;20162;-81
2022/11/27 03:26:28;;;;;;;;;;;0.50;99.90;;;;;;1837258;78;20327;-81
2022/11/27 03:28:54;;;;;;;;;;;0.50;99.90;;;;;;1837207;78;20154;-80
2022/11/27 03:31:22;;;;;;;;;;;0.50;99.90;;;;;;1837299;78;20323;-80
2022/11/27 03:33:49;;;;;;;;;;;0.50;99.90;;;;;;1837237;78;20123;-81
2022/11/27 03:36:17;;;;;;;;;;;0.50;99.90;;;;;;1837447;78;20146;-81
2022/11/27 03:38:44;;;;;;;;;;;0.50;99.90;;;;;;1839356;76;20174;-80
2022/11/27 03:41:12;;;;;;;;;;;0.50;99.90;;;;;;1840960;77;20135;-80
2022/11/27 03:43:41;;;;;;;;;;;0.40;99.90;;;;;;1840453;77;20100;-81
2022/11/27 03:46:11;;;;;;;;;;;0.40;99.90;;;;;;1837286;78;20118;-81
2022/11/27 03:48:42;;;;;;;;;;;0.30;99.90;;;;;;1837158;78;20150;-79
2022/11/27 03:51:19;;;;;;;;;;;0.40;99.90;;;;;;1837371;78;20205;-80
2022/11/27 03:53:57;;;;;;;;;;;0.40;99.90;;;;;;1837341;78;20119;-80
2022/11/27 03:56:31;;;;;;;;;;;0.30;99.90;;;;;;1837051;78;20185;-80
2022/11/27 03:58:58;;;;;;;;;;;0.10;99.90;;;;;;1803394;78;20131;-80
2022/11/27 04:01:25;;;;;;;;;;;0.20;99.90;;;;;;1837354;78;20107;-80
2022/11/27 04:03:52;;;;;;;;;;;0.20;99.90;;;;;;1837256;78;20174;-80
2022/11/27 04:06:19;;;;;;;;;;;0.20;99.90;;;;;;1837533;78;20108;-80
2022/11/27 04:08:46;;;;;;;;;;;0.10;99.90;;;;;;1837383;78;20108;-80
2022/11/27 04:11:13;;;;;;;;;;;0.10;99.90;;;;;;1837368;78;20123;-81
2022/11/27 04:13:40;;;;;;;;;;;0.20;99.90;;;;;;1837482;78;20181;-81
2022/11/27 04:16:07;;;;;;;;;;;0.20;99.90;;;;;;1837266;78;20342;-79
2022/11/27 04:18:33;;;;;;;;;;;0.20;99.90;;;;;;1837318;78;20192;-81
2022/11/27 04:21:00;;;;;;;;;;;0.20;99.90;;;;;;1837551;78;20118;-79
2022/11/27 04:23:27;;;;;;;;;;;0.20;99.90;;;;;;1837336;78;20126;-80
2022/11/27 04:25:53;;;;;;;;;;;0.20;99.90;;;;;;1837396;78;20170;-80
2022/11/27 04:28:20;;;;;;;;;;;0.10;99.90;;;;;;1837254;78;20118;-80
2022/11/27 04:30:48;;;;;;;;;;;0.10;99.90;;;;;;1837366;78;20200;-80
2022/11/27 04:33:15;;;;;;;;;;;0.20;99.90;;;;;;1837151;78;20119;-81
2022/11/27 04:35:42;;;;;;;;;;;0.30;99.90;;;;;;1837296;78;20123;-81
2022/11/27 04:38:09;;;;;;;;;;;0.20;99.90;;;;;;1814479;78;20184;-80
2022/11/27 04:40:37;;;;;;;;;;;0.20;99.90;;;;;;1837466;78;20119;-80
2022/11/27 04:43:04;;;;;;;;;;;0.10;99.90;;;;;;1837110;78;20167;-81
2022/11/27 04:45:30;;;;;;;;;;;0.00;99.90;;;;;;1837386;78;20103;-81
2022/11/27 04:47:57;;;;;;;;;;;-0.10;99.90;;;;;;1837354;78;20181;-80
2022/11/27 04:50:24;;;;;;;;;;;-0.10;99.90;;;;;;1837270;78;20420;-81
2022/11/27 04:52:50;;;;;;;;;;;-0.20;99.90;;;;;;1837341;78;20119;-80
2022/11/27 04:55:17;;;;;;;;;;;-0.10;99.90;;;;;;1837327;78;20346;-80
2022/11/27 04:57:44;;;;;;;;;;;-0.30;99.90;;;;;;1837221;78;20169;-80
2022/11/27 05:00:11;;;;;;;;;;;-0.30;99.90;;;;;;1837259;78;20123;-81
2022/11/27 05:02:38;;;;;;;;;;;-0.20;99.90;;;;;;1837304;78;20114;-80
2022/11/27 05:05:05;;;;;;;;;;;-0.40;99.90;;;;;;1837322;78;20131;-81
2022/11/27 05:07:31;;;;;;;;;;;-0.50;99.90;;;;;;1837322;78;20122;-80
2022/11/27 05:09:58;;;;;;;;;;;-0.40;99.90;;;;;;1837429;78;20123;-80
2022/11/27 05:12:25;;;;;;;;;;;-0.30;99.90;;;;;;1837374;78;20152;-80
2022/11/27 05:14:51;;;;;;;;;;;-0.40;99.90;;;;;;1837332;78;20127;-80
2022/11/27 05:17:18;;;;;;;;;;;-0.20;99.90;;;;;;1837343;78;20335;-81
2022/11/27 05:19:45;;;;;;;;;;;-0.20;99.90;;;;;;1837370;78;20112;-82
2022/11/27 05:22:11;;;;;;;;;;;-0.20;99.90;;;;;;1837469;78;20320;-81
2022/11/27 05:24:38;;;;;;;;;;;-0.20;99.90;;;;;;1837298;78;20203;-80
2022/11/27 05:27:05;;;;;;;;;;;-0.40;99.90;;;;;;1837423;78;20202;-80
2022/11/27 05:29:32;;;;;;;;;;;-0.40;99.90;;;;;;1837470;78;20115;-80
2022/11/27 05:31:58;;;;;;;;;;;-0.30;99.90;;;;;;1837428;78;20127;-80
2022/11/27 05:34:25;;;;;;;;;;;-0.30;99.90;;;;;;1837312;78;20123;-82
2022/11/27 05:36:52;;;;;;;;;;;-0.30;99.90;;;;;;1837286;78;20111;-80
2022/11/27 05:39:18;;;;;;;;;;;-0.30;99.90;;;;;;1837452;78;20150;-81
2022/11/27 05:41:45;;;;;;;;;;;-0.40;99.90;;;;;;1837354;78;20142;-82
2022/11/27 05:44:12;;;;;;;;;;;-0.40;99.90;;;;;;1837341;78;20330;-81
2022/11/27 05:46:39;;;;;;;;;;;-0.50;99.90;;;;;;1837446;78;20353;-82
2022/11/27 05:49:06;;;;;;;;;;;-0.40;99.90;;;;;;1837282;78;20224;-81
2022/11/27 05:51:32;;;;;;;;;;;-0.30;99.90;;;;;;1837407;78;20330;-80
2022/11/27 05:53:59;;;;;;;;;;;-0.20;99.90;;;;;;1837328;78;20157;-81
2022/11/27 05:56:26;;;;;;;;;;;-0.30;99.90;;;;;;1837006;78;20231;-80
2022/11/27 05:58:52;;;;;;;;;;;-0.20;99.90;;;;;;1837308;78;20154;-81
2022/11/27 06:01:19;;;;;;;;;;;-0.30;99.90;;;;;;1837506;78;20154;-80
2022/11/27 06:03:46;;;;;;;;;;;-0.30;99.90;;;;;;1837355;78;20131;-81
2022/11/27 06:06:14;;;;;;;;;;;-0.20;99.90;;;;;;1837531;78;20323;-81
2022/11/27 06:08:40;;;;;;;;;;;-0.20;99.90;;;;;;1837976;78;20116;-82
2022/11/27 06:11:11;;;;;;;;;;;-0.20;99.90;;;;;;1839007;78;20162;-80
2022/11/27 06:13:37;;;;;;;;;;;-0.30;99.90;;;;;;1838682;78;20107;-82
2022/11/27 06:16:06;;;;;;;;;;;-0.20;99.90;;;;;;1838590;78;20417;-81
2022/11/27 06:18:32;;;;;;;;;;;-0.30;99.90;;;;;;1838672;78;20149;-79
2022/11/27 06:20:59;;;;;;;;;;;-0.40;99.90;;;;;;1840132;78;20192;-81
2022/11/27 06:23:26;;;;;;;;;;;-0.40;99.90;;;;;;1838756;78;20186;-82
2022/11/27 06:25:53;;;;;;;;;;;-0.20;99.90;;;;;;1839089;78;20338;-82
2022/11/27 06:28:21;;;;;;;;;;;-0.20;99.90;;;;;;1838609;78;20231;-82
2022/11/27 06:30:48;;;;;;;;;;;-0.30;99.90;;;;;;1838287;78;20118;-82
2022/11/27 06:33:14;;;;;;;;;;;-0.40;99.90;;;;;;1837672;78;20401;-82
2022/11/27 06:35:41;;;;;;;;;;;-0.40;99.90;;;;;;1837855;78;20115;-80
2022/11/27 06:38:08;;;;;;;;;;;-0.40;99.90;;;;;;1837538;78;20307;-80
2022/11/27 06:40:34;;;;;;;;;;;-0.30;99.90;;;;;;1837323;78;20162;-83
2022/11/27 06:43:01;;;;;;;;;;;-0.30;99.90;;;;;;1837351;78;20354;-82
2022/11/27 06:45:28;;;;;;;;;;;-0.20;99.90;;;;;;1815081;78;20181;-80
2022/11/27 06:47:54;;;;;;;;;;;-0.30;99.90;;;;;;1838859;78;20194;-79
2022/11/27 06:50:21;;;;;;;;;;;-0.30;99.90;;;;;;1839435;78;20119;-82
2022/11/27 06:52:48;;;;;;;;;;;-0.50;99.90;;;;;;1839225;78;20128;-78
2022/11/27 06:55:15;;;;;;;;;;;-0.50;99.90;;;;;;1839073;78;20107;-80
2022/11/27 06:57:42;;;;;;;;;;;-0.30;99.90;;;;;;1837805;78;20119;-83
2022/11/27 07:00:09;;;;;;;;;;;-0.40;99.90;;;;;;1837582;78;20107;-80
2022/11/27 07:02:35;;;;;;;;;;;-0.30;99.90;;;;;;1837323;78;20111;-80
2022/11/27 07:05:02;;;;;;;;;;;-0.40;99.90;;;;;;1836976;78;20115;-80
2022/11/27 07:07:29;;;;;;;;;;;-0.50;99.90;;;;;;1837199;78;20122;-80
2022/11/27 07:09:55;;;;;;;;;;;-0.40;99.90;;;;;;1837223;78;20197;-80
2022/11/27 07:12:22;;;;;;;;;;;-0.20;99.90;;;;;;1837286;78;20119;-81
2022/11/27 07:14:49;;;;;;;;;;;-0.30;99.90;;;;;;1837195;78;20119;-82
2022/11/27 07:17:15;;;;;;;;;;;-0.30;99.90;;;;;;1837225;78;20385;-77
2022/11/27 07:19:42;;;;;;;;;;;-0.30;99.90;;;;;;1837081;78;20159;-76
2022/11/27 07:22:09;;;;;;;;;;;-0.50;99.90;;;;;;1837231;78;20311;-77
2022/11/27 07:24:36;;;;;;;;;;;-0.40;99.90;;;;;;1836950;78;20127;-74
2022/11/27 07:27:02;;;;;;;;;;;-0.30;99.90;;;;;;1837122;78;20374;-79
2022/11/27 07:29:29;;;;;;;;;;;-0.40;99.90;;;;;;1837274;78;20176;-75
2022/11/27 07:31:56;;;;;;;;;;;-0.50;99.90;;;;;;1837158;78;20173;-77
2022/11/27 07:34:22;;;;;;;;;;;-0.50;99.90;;;;;;1837106;78;20153;-76
2022/11/27 07:36:51;;;;;;;;;;;-0.50;99.90;;;;;;1837244;78;20132;-76
2022/11/27 07:39:23;;;;;;;;;;;-0.40;99.90;;;;;;1837360;78;20136;-78
2022/11/27 07:41:49;;;;;;;;;;;-0.40;99.90;;;;;;1837241;77;20123;-78
2022/11/27 07:44:16;;;;;;;;;;;-0.30;99.90;;;;;;1837239;78;20165;-77
2022/11/27 07:46:43;;;;;;;;;;;-0.30;99.90;;;;;;1837227;78;20119;-79
2022/11/27 07:49:09;;;;;;;;;;;-0.20;99.90;;;;;;1837161;78;20145;-76
2022/11/27 07:51:36;;;;;;;;;;;-0.40;99.90;;;;;;1837176;78;20330;-77
2022/11/27 07:54:03;;;;;;;;;;;-0.30;99.90;;;;;;1837146;78;20111;-77
2022/11/27 07:56:31;;;;;;;;;;;-0.40;99.90;;;;;;1837122;78;20181;-77
2022/11/27 07:58:57;;;;;;;;;;;-0.30;99.90;;;;;;1837090;78;20115;-78
2022/11/27 08:01:24;;;;;;;;;;;-0.30;99.90;;;;;;1837116;78;20459;-79
2022/11/27 08:03:51;;;;;;;;;;;-0.50;99.90;;;;;;1837234;78;20184;-79
2022/11/27 08:06:19;;;;;;;;;;;-0.40;99.90;;;;;;1837232;78;20154;-78
2022/11/27 08:08:46;;;;;;;;;;;-0.30;99.90;;;;;;1835942;78;20135;-77
2022/11/27 08:11:17;;;;;;;;;;;-0.50;99.90;;;;;;1837239;78;20127;-79
2022/11/27 08:13:43;;;;;;;;;;;-0.50;99.90;;;;;;1837206;78;20103;-80
2022/11/27 08:16:11;;;;;;;;;;;-0.50;99.90;;;;;;1837255;78;20123;-76
2022/11/27 08:18:38;;;;;;;;;;;-0.50;99.90;;;;;;1837134;78;20207;-77
2022/11/27 08:21:05;;;;;;;;;;;-0.60;99.90;;;;;;1837289;78;20178;-77
2022/11/27 08:23:31;;;;;;;;;;;-0.50;99.90;;;;;;1837235;78;20346;-76
2022/11/27 08:25:58;;;;;;;;;;;-0.40;99.90;;;;;;1837129;78;20154;-78
2022/11/27 08:28:25;;;;;;;;;;;-0.30;99.90;;;;;;1837193;78;20155;-77
2022/11/27 08:30:56;;;;;;;;;;;-0.40;99.90;;;;;;1837166;78;20112;-78
2022/11/27 08:33:22;;;;;;;;;;;-0.40;99.90;;;;;;1837155;78;20119;-78
2022/11/27 08:35:49;;;;;;;;;;;-0.40;99.90;;;;;;1837189;78;20194;-77
2022/11/27 08:38:16;;;;;;;;;;;-0.30;99.90;;;;;;1837123;78;20159;-78
2022/11/27 08:40:45;;;;;;;;;;;-0.30;99.90;;;;;;1837222;78;20165;-78
2022/11/27 08:43:13;;;;;;;;;;;-0.30;99.90;;;;;;1837412;78;20197;-78
2022/11/27 08:45:39;;;;;;;;;;;-0.20;99.90;;;;;;1837231;78;20187;-76
2022/11/27 08:48:06;;;;;;;;;;;-0.20;99.90;;;;;;1837574;78;20131;-77
2022/11/27 08:50:33;;;;;;;;;;;-0.10;99.90;;;;;;1837382;78;20327;-79
2022/11/27 08:52:59;;;;;;;;;;;-0.10;99.90;;;;;;1837301;78;20196;-77
2022/11/27 08:55:26;;;;;;;;;;;0.10;99.90;;;;;;1837153;78;20412;-78
2022/11/27 08:57:53;;;;;;;;;;;0.10;99.90;;;;;;1837197;78;20119;-78
2022/11/27 09:00:20;;;;;;;;;;;0.10;99.90;;;;;;1837251;78;20134;-77
2022/11/27 09:02:47;;;;;;;;;;;0.10;99.90;;;;;;1837305;78;20121;-79
2022/11/27 09:05:13;;;;;;;;;;;0.20;99.90;;;;;;1837222;78;20173;-78
2022/11/27 09:07:40;;;;;;;;;;;0.20;99.90;;;;;;1837296;78;20107;-76
2022/11/27 09:10:08;;;;;;;;;;;0.20;99.90;;;;;;1837366;78;20104;-78
2022/11/27 09:12:35;;;;;;;;;;;0.30;99.90;;;;;;1837253;78;20213;-76
2022/11/27 09:15:03;;;;;;;;;;;0.40;99.90;;;;;;1837629;78;20119;-76
2022/11/27 09:17:30;;;;;;;;;;;0.20;99.90;;;;;;1837492;77;20115;-78
2022/11/27 09:19:57;;;;;;;;;;;0.40;99.90;;;;;;1837509;78;20192;-76
2022/11/27 09:22:24;;;;;;;;;;;0.60;99.90;;;;;;1837412;78;20199;-78
2022/11/27 09:24:51;;;;;;;;;;;0.70;99.90;;;;;;1837195;78;20355;-78
2022/11/27 09:27:17;;;;;;;;;;;0.70;99.90;;;;;;1837433;78;20162;-76
2022/11/27 09:29:44;;;;;;;;;;;1.10;99.90;;;;;;1837216;78;20359;-76
2022/11/27 09:32:11;;;;;;;;;;;1.50;99.90;;;;;;1837291;78;20119;-77
2022/11/27 09:34:37;;;;;;;;;;;1.40;99.90;;;;;;1837194;78;20335;-80
2022/11/27 09:37:04;;;;;;;;;;;1.20;99.90;;;;;;1837825;78;20159;-71
2022/11/27 09:39:32;;;;;;;;;;;1.40;99.90;;;;;;1839820;78;20112;-75
2022/11/27 09:42:00;;;;;;;;;;;1.30;99.90;;;;;;1838270;78;20119;-77
2022/11/27 09:44:35;;;;;;;;;;;1.40;99.90;;;;;;1837278;78;20163;-78
2022/11/27 09:47:18;;;;;;;;;;;1.20;99.90;;;;;;1837240;78;20331;-77
2022/11/27 09:49:46;;;;;;;;;;;1.40;99.90;;;;;;1836477;78;20275;-75
2022/11/27 09:52:31;;;;;;;;;;;1.80;99.90;;;;;;1837164;78;20111;-74
2022/11/27 09:55:02;;;;;;;;;;;2.20;99.90;;;;;;1837135;78;20331;-73
2022/11/27 09:57:31;;;;;;;;;;;2.00;99.90;;;;;;1837174;78;20153;-74
2022/11/27 09:59:58;;;;;;;;;;;2.00;99.90;;;;;;1837077;78;20252;-73
2022/11/27 10:02:31;;;;;;;;;;;2.10;99.90;;;;;;1837262;78;20228;-74
2022/11/27 10:04:58;;;;;;;;;;;1.90;99.90;;;;;;1837157;78;20163;-72
2022/11/27 10:07:43;;;;;;;;;;;1.90;99.90;;;;;;1837437;78;20158;-74
2022/11/27 10:10:14;;;;;;;;;;;2.10;99.90;;;;;;1837467;78;20120;-72
2022/11/27 10:12:42;;;;;;;;;;;2.40;99.90;;;;;;1836593;78;20107;-73
2022/11/27 10:15:13;;;;;;;;;;;3.00;99.90;;;;;;1836699;78;20128;-76
2022/11/27 10:17:41;;;;;;;;;;;3.00;99.90;;;;;;1836832;78;20196;-73
2022/11/27 10:20:13;;;;;;;;;;;3.20;99.90;;;;;;1836500;78;20208;-72
2022/11/27 10:22:44;;;;;;;;;;;3.40;99.90;;;;;;1837202;78;20116;-75
2022/11/27 10:25:17;;;;;;;;;;;3.40;99.90;;;;;;1836969;78;20369;-74
2022/11/27 10:27:46;;;;;;;;;;;3.40;99.90;;;;;;1836904;78;20188;-73
2022/11/27 10:30:17;;;;;;;;;;;3.10;99.90;;;;;;1837511;78;20323;-74
2022/11/27 10:32:44;;;;;;;;;;;3.00;99.90;;;;;;1837252;78;20115;-73
2022/11/27 10:35:15;;;;;;;;;;;3.10;99.90;;;;;;1837261;78;20123;-73
2022/11/27 10:37:43;;;;;;;;;;;3.00;99.90;;;;;;1821876;78;20134;-73
2022/11/27 10:40:11;;;;;;;;;;;3.10;99.90;;;;;;1837390;78;20196;-73
2022/11/27 10:42:58;;;;;;;;;;;3.20;99.90;;;;;;1837443;78;20115;-73
2022/11/27 10:45:29;;;;;;;;;;;3.50;99.90;;;;;;1837322;78;20209;-73
2022/11/27 10:47:56;;;;;;;;;;;3.90;99.90;;;;;;1838096;78;20123;-74
2022/11/27 10:50:23;;;;;;;;;;;4.10;99.90;;;;;;1837283;78;20373;-75
2022/11/27 10:52:51;;;;;;;;;;;4.40;99.90;;;;;;1837354;78;20119;-74
2022/11/27 10:58:01;;;;;;;;;;;4.70;99.90;;;;;;1970884;70;20150;-75
2022/11/27 11:00:28;;;;;;;;;;;4.50;99.90;;;;;;2011219;71;20119;-74
2022/11/27 11:03:01;;;;;;;;;;;4.50;99.90;;;;;;2026789;71;20097;-75
2022/11/27 11:05:28;;;;;;;;;;;4.50;99.90;;;;;;2026479;71;20215;-73
2022/11/27 11:08:04;;;;;;;;;;;4.70;99.90;;;;;;2023988;71;20169;-75
2022/11/27 11:10:32;;;;;;;;;;;5.00;99.90;;;;;;2023358;71;20414;-76
2022/11/27 11:13:11;;;;;;;;;;;5.60;99.90;;;;;;2023480;71;20358;-73
2022/11/27 11:15:51;;;;;;;;;;;5.70;99.90;;;;;;1997634;71;20138;-75
2022/11/27 11:18:25;;;;;;;;;;;6.20;99.90;;;;;;2023499;71;20096;-74
2022/11/27 11:20:53;;;;;;;;;;;5.90;99.90;;;;;;2023600;71;20155;-75
2022/11/27 11:23:24;;;;;;;;;;;6.60;99.90;;;;;;2022247;71;20104;-75
2022/11/27 11:25:51;;;;;;;;;;;6.60;99.90;;;;;;2022133;71;20139;-75
2022/11/27 11:28:18;;;;;;;;;;;6.50;99.90;;;;;;2023371;71;20107;-75
2022/11/27 11:30:46;;;;;;;;;;;6.50;99.90;;;;;;2023418;71;20154;-73
2022/11/27 11:33:13;;;;;;;;;;;6.80;99.90;;;;;;2021947;71;20138;-73
2022/11/27 11:35:40;;;;;;;;;;;6.80;99.90;;;;;;2023429;71;20165;-75
2022/11/27 11:38:08;;;;;;;;;;;7.00;99.90;;;;;;2023576;71;20112;-73
2022/11/27 11:40:35;;;;;;;;;;;7.50;99.90;;;;;;2022499;71;20107;-73
2022/11/27 11:43:03;;;;;;;;;;;7.30;99.90;;;;;;2023785;71;20154;-73
2022/11/27 11:45:30;;;;;;;;;;;7.30;99.90;;;;;;2023570;71;20099;-73
2022/11/27 11:48:03;;;;;;;;;;;7.00;99.90;;;;;;2023767;71;20323;-73
2022/11/27 11:50:40;;;;;;;;;;;6.90;99.90;;;;;;2023762;71;20315;-73
2022/11/27 11:53:09;;;;;;;;;;;6.30;99.90;;;;;;2023551;71;20132;-74
2022/11/27 11:55:41;;;;;;;;;;;6.30;99.90;;;;;;2023550;71;20136;-72
2022/11/27 11:58:15;;;;;;;;;;;6.40;99.90;;;;;;2022631;71;20111;-72
2022/11/27 12:00:45;;;;;;;;;;;6.50;99.90;;;;;;2023560;71;20159;-73
2022/11/27 12:03:13;;;;;;;;;;;7.00;99.90;;;;;;2023591;71;20431;-72
2022/11/27 12:05:42;;;;;;;;;;;7.40;99.90;;;;;;2023640;71;20104;-72
2022/11/27 12:08:28;;;;;;;;;;;7.60;99.90;;;;;;2017958;71;20146;-75
2022/11/27 12:11:14;;;;;;;;;;;7.60;99.90;;;;;;2023410;71;20365;-74
2022/11/27 12:13:48;;;;;;;;;;;7.80;99.90;;;;;;2023730;71;20161;-75
2022/11/27 12:16:17;;;;;;;;;;;8.20;99.90;;;;;;2023838;71;20157;-72
2022/11/27 12:18:45;;;;;;;;;;;8.50;99.90;;;;;;2022403;71;20356;-74
2022/11/27 12:21:14;;;;;;;;;;;8.30;99.90;;;;;;2023881;71;20158;-75
2022/11/27 12:23:42;;;;;;;;;;;8.30;99.90;;;;;;2024023;71;20185;-75
2022/11/27 12:26:27;;;;;;;;;;;8.30;99.90;;;;;;2023805;71;20157;-77
2022/11/27 12:29:11;;;;;;;;;;;8.40;99.90;;;;;;2023822;71;20146;-76
2022/11/27 12:31:45;;;;;;;;;;;8.40;99.90;;;;;;2024185;71;20103;-75
2022/11/27 12:34:19;;;;;;;;;;;9.00;99.90;;;;;;2023673;71;20377;-76
2022/11/27 12:36:50;;;;;;;;;;;9.10;99.90;;;;;;2023678;71;20104;-74
2022/11/27 12:39:37;;;;;;;;;;;8.90;99.90;;;;;;2023314;71;20100;-75
2022/11/27 12:42:05;;;;;;;;;;;9.60;99.90;;;;;;1884327;76;20210;-75
2022/11/27 12:44:36;;;;;;;;;;;10.10;99.90;;;;;;1885132;76;20333;-75
2022/11/27 12:47:05;;;;;;;;;;;9.90;99.90;;;;;;1885781;76;20168;-77
2022/11/27 12:49:32;;;;;;;;;;;10.50;99.90;;;;;;1885257;76;20160;-76
2022/11/27 12:52:00;;;;;;;;;;;10.80;99.90;;;;;;1886032;76;20146;-75
2022/11/27 12:54:31;;;;;;;;;;;10.90;99.90;;;;;;1885352;76;20152;-76
2022/11/27 12:56:58;;;;;;;;;;;11.00;99.90;;;;;;1885096;76;20141;-76
2022/11/27 12:59:26;;;;;;;;;;;10.80;99.90;;;;;;1885062;76;20114;-76
2022/11/27 13:02:01;;;;;;;;;;;11.00;99.90;;;;;;1884950;76;20196;-76
2022/11/27 13:04:27;;;;;;;;;;;10.60;99.90;;;;;;1883739;75;20114;-75
2022/11/27 13:07:07;;;;;;;;;;;10.40;99.90;;;;;;1884907;76;20114;-77
2022/11/27 13:09:39;;;;;;;;;;;10.10;99.90;;;;;;1884942;76;20204;-77
2022/11/27 13:12:06;;;;;;;;;;;9.80;99.90;;;;;;1885031;75;20336;-78
2022/11/27 13:14:32;;;;;;;;;;;9.40;99.90;;;;;;1885037;76;20165;-76
2022/11/27 13:17:01;;;;;;;;;;;9.90;99.90;;;;;;1885029;76;20336;-75
2022/11/27 13:19:46;;;;;;;;;;;10.20;99.90;;;;;;1885004;76;20117;-75
2022/11/27 13:22:18;;;;;;;;;;;10.40;99.90;;;;;;1885021;76;20150;-73
2022/11/27 13:24:45;;;;;;;;;;;10.80;99.90;;;;;;1884779;76;20110;-74
2022/11/27 13:27:13;;;;;;;;;;;11.10;99.90;;;;;;1884832;76;20321;-74
2022/11/27 13:29:50;;;;;;;;;;;11.70;99.90;;;;;;1884778;76;20144;-73
2022/11/27 13:32:21;;;;;;;;;;;11.70;99.90;;;;;;1884747;76;20102;-74
2022/11/27 13:34:48;;;;;;;;;;;11.50;99.90;;;;;;1884763;76;20115;-73
2022/11/27 13:37:19;;;;;;;;;;;11.60;99.90;;;;;;1884810;76;20110;-72
2022/11/27 13:39:46;;;;;;;;;;;11.50;99.90;;;;;;1885180;76;20118;-71
2022/11/27 13:42:21;;;;;;;;;;;11.30;99.90;;;;;;1885308;76;20203;-74
2022/11/27 13:44:55;;;;;;;;;;;10.50;99.90;;;;;;1885182;75;20106;-73
2022/11/27 13:47:23;;;;;;;;;;;10.20;99.90;;;;;;1887193;76;20227;-72
2022/11/27 13:50:06;;;;;;;;;;;10.20;99.90;;;;;;1885362;76;20114;-73
2022/11/27 13:52:33;;;;;;;;;;;10.00;99.90;;;;;;1885121;76;20372;-74
2022/11/27 13:55:01;;;;;;;;;;;9.70;99.90;;;;;;1885350;76;20118;-73
2022/11/27 13:57:29;;;;;;;;;;;9.60;99.90;;;;;;1885207;76;20118;-73
2022/11/27 14:00:02;;;;;;;;;;;9.40;99.90;;;;;;1885347;76;20113;-73
2022/11/27 14:02:39;;;;;;;;;;;9.30;99.90;;;;;;1885414;76;20106;-73
2022/11/27 14:05:06;;;;;;;;;;;9.10;99.90;;;;;;1885076;76;20334;-73
2022/11/27 14:07:40;;;;;;;;;;;9.20;99.90;;;;;;1885087;76;20166;-73
2022/11/27 14:10:11;;;;;;;;;;;9.00;99.90;;;;;;1885047;76;20110;-71
2022/11/27 14:12:38;;;;;;;;;;;9.10;99.90;;;;;;1885117;76;20115;-75
2022/11/27 14:15:06;;;;;;;;;;;9.20;99.90;;;;;;1885051;76;20126;-74
2022/11/27 14:17:35;;;;;;;;;;;9.20;99.90;;;;;;1884963;76;20161;-72
2022/11/27 14:20:04;;;;;;;;;;;9.30;99.90;;;;;;1884851;76;20118;-73
2022/11/27 14:22:49;;;;;;;;;;;9.30;99.90;;;;;;1884985;76;20102;-74
2022/11/27 14:25:17;;;;;;;;;;;9.30;99.90;;;;;;1884885;76;20111;-73
2022/11/27 14:27:44;;;;;;;;;;;9.40;99.90;;;;;;1884647;76;20152;-73
2022/11/27 14:30:12;;;;;;;;;;;9.60;99.90;;;;;;1884787;76;20146;-75
2022/11/27 14:32:39;;;;;;;;;;;9.60;99.90;;;;;;1884747;76;20118;-73
2022/11/27 14:35:07;;;;;;;;;;;9.60;99.90;;;;;;1884651;76;20117;-71
2022/11/27 14:37:34;;;;;;;;;;;9.30;99.90;;;;;;1884701;76;20126;-72